Terminal Aerodrome Forecast
Issued by NWS Raleigh/Durham, NC

Home | Current Version | Previous Version | Text Only | Print | Product List | Glossary On
Versions: 1 2 3 4 5 6 7 8 9 10 11 12 13 14 15 16 17 18 19 20 21 22 23 24 25 26
707
FTUS42 KRAH 111139
TAFFAY
TAF
KFAY 111139Z 1112/1212 VRB04KT P6SM FEW250
     FM111600 10006KT P6SM OVC040
     FM112200 10005KT P6SM -RA OVC025
     FM120300 19005KT 2SM -RA BR OVC008
     FM120700 22006KT 1SM -DZ BR OVC003=

USA.gov is the U.S. government's official web portal to all federal, state and local government web resources and services.